CheckWX is a tool to help pilots better visualize weather data.  It is not intended as a substitute for an official pre-flight weather briefing.

11:21:47 UTC

KUCY METAR
Everett-Stewart Regional Airport
Union City, Tennessee, USA
Current

7 mins ago

KUCY 141115Z AUTO 19003KT 1/4SM FG OVC004 02/02 A2975 RMK A01
Observed
Dec-14 @ 11:15 UTC
Wind
  • 190° at 3 KTS
Visibility
1/4 SM
Flight Rules
LIFR
Conditions
Fog
Cloud Levels
  • Overcast at 400' AGL
Temperature
C / 36°F
Dewpoint
C / 36°F
Humidity
100%
Altimeter
29.75" Hg
Pressure
1007.42 hPa
Previous

27 mins ago

KUCY 141055Z AUTO 16003KT M1/4SM FG OVC005 01/01 A2975 RMK A01
Observed
Dec-14 @ 10:55 UTC
Wind
  • 160° at 3 KTS
Visibility
1/4 SM
Flight Rules
LIFR
Conditions
Fog
Cloud Levels
  • Overcast at 500' AGL
Temperature
C / 34°F
Dewpoint
C / 34°F
Humidity
100%
Altimeter
29.75" Hg
Pressure
1007.42 hPa
Previous

47 mins ago

KUCY 141035Z AUTO 19004KT M1/4SM FG OVC002 01/01 A2975 RMK A01
Observed
Dec-14 @ 10:35 UTC
Wind
  • 190° at 4 KTS
Visibility
1/4 SM
Flight Rules
LIFR
Conditions
Fog
Cloud Levels
  • Overcast at 200' AGL
Temperature
C / 34°F
Dewpoint
C / 34°F
Humidity
100%
Altimeter
29.75" Hg
Pressure
1007.42 hPa